OMS437 OOMS-VCBI
Flight info
| Callsign | OMS437 |
|---|---|
| Flight time | N/A |
| Altitude | 37000 |
| Route | EMURU M300 VASTU P895 BIKOK BIKOK1A |
| Aircraft | A20N/M-SDE2E3FGHIRWXY/LB1 |
Departure
| Time | 2026-04-27 18:32 |
|---|---|
| Airport | Muscat International Airport (OOMS) |
Arrival
| Time | N/A |
|---|---|
| Airport | Bandaranaike International Colombo Airport (VCBI) |
| Time | Latitude | Longitude | Altitude | Speed | Heading |
|---|---|---|---|---|---|
| 2026-04-27 17:57 | 23.58956 | 58.28520 | 38 ft | 0 kts | 84° |
| 2026-04-27 18:22 | 23.58955 | 58.28515 | 38 ft | 3 kts | 84° |
| 2026-04-27 18:22 | 23.58953 | 58.28492 | 38 ft | 3 kts | 86° |
| 2026-04-27 18:22 | 23.58953 | 58.28469 | 38 ft | 3 kts | 98° |
| 2026-04-27 18:22 | 23.58956 | 58.28446 | 38 ft | 3 kts | 73° |
| 2026-04-27 18:23 | 23.58958 | 58.28440 | 38 ft | 0 kts | 355° |
| 2026-04-27 18:26 | 23.58972 | 58.28438 | 38 ft | 3 kts | 355° |
| 2026-04-27 18:26 | 23.59005 | 58.28435 | 38 ft | 6 kts | 355° |
| 2026-04-27 18:27 | 23.59056 | 58.28430 | 38 ft | 8 kts | 357° |
| 2026-04-27 18:27 | 23.59106 | 58.28467 | 38 ft | 10 kts | 68° |
| 2026-04-27 18:27 | 23.59117 | 58.28552 | 38 ft | 12 kts | 86° |
| 2026-04-27 18:27 | 23.59124 | 58.28654 | 38 ft | 15 kts | 85° |
| 2026-04-27 18:28 | 23.59132 | 58.28772 | 38 ft | 17 kts | 85° |
| 2026-04-27 18:28 | 23.59141 | 58.28907 | 38 ft | 19 kts | 86° |
| 2026-04-27 18:28 | 23.59151 | 58.29056 | 37 ft | 21 kts | 84° |
| 2026-04-27 18:28 | 23.59165 | 58.29218 | 37 ft | 22 kts | 84° |
| 2026-04-27 18:29 | 23.59184 | 58.29393 | 36 ft | 24 kts | 83° |
| 2026-04-27 18:29 | 23.59195 | 58.29578 | 36 ft | 25 kts | 87° |
| 2026-04-27 18:29 | 23.59209 | 58.29655 | 34 ft | 7 kts | 57° |
| 2026-04-27 18:29 | 23.59259 | 58.29668 | 36 ft | 9 kts | 360° |
| 2026-04-27 18:30 | 23.59326 | 58.29663 | 36 ft | 11 kts | 354° |
| 2026-04-27 18:30 | 23.59397 | 58.29637 | 37 ft | 11 kts | 302° |
| 2026-04-27 18:30 | 23.59401 | 58.29550 | 37 ft | 12 kts | 269° |
| 2026-04-27 18:30 | 23.59398 | 58.29453 | 37 ft | 14 kts | 260° |
| 2026-04-27 18:31 | 23.59373 | 58.29226 | 37 ft | 60 kts | 263° |
| 2026-04-27 18:31 | 23.59309 | 58.28536 | 38 ft | 121 kts | 265° |
| 2026-04-27 18:31 | 23.59215 | 58.27442 | 59 ft | 165 kts | 263° |
| 2026-04-27 18:31 | 23.59101 | 58.26169 | 485 ft | 177 kts | 263° |
| 2026-04-27 18:32 | 23.58968 | 58.24769 | 928 ft | 189 kts | 265° |
| 2026-04-27 18:32 | 23.58824 | 58.23292 | 1343 ft | 205 kts | 268° |
| 2026-04-27 18:32 | 23.58655 | 58.21670 | 1767 ft | 223 kts | 264° |
| 2026-04-27 18:32 | 23.58235 | 58.20006 | 2375 ft | 232 kts | 249° |
| 2026-04-27 18:33 | 23.57311 | 58.18530 | 3087 ft | 243 kts | 229° |
| 2026-04-27 18:33 | 23.55891 | 58.17497 | 3671 ft | 259 kts | 206° |
| 2026-04-27 18:33 | 23.54059 | 58.17144 | 4153 ft | 280 kts | 180° |
| 2026-04-27 18:33 | 23.52117 | 58.17700 | 4608 ft | 300 kts | 156° |
| 2026-04-27 18:34 | 23.50342 | 58.18979 | 5198 ft | 308 kts | 144° |
| 2026-04-27 18:34 | 23.48663 | 58.20356 | 6211 ft | 299 kts | 147° |
| 2026-04-27 18:34 | 23.46915 | 58.21620 | 6896 ft | 301 kts | 152° |
| 2026-04-27 18:34 | 23.45119 | 58.22756 | 7701 ft | 298 kts | 154° |
| 2026-04-27 18:35 | 23.43280 | 58.23821 | 8439 ft | 299 kts | 155° |
| 2026-04-27 18:35 | 23.41425 | 58.24852 | 9215 ft | 299 kts | 156° |
| 2026-04-27 18:35 | 23.39562 | 58.25875 | 9955 ft | 300 kts | 156° |
| 2026-04-27 18:35 | 23.37684 | 58.26904 | 10376 ft | 315 kts | 156° |
| 2026-04-27 18:36 | 23.35660 | 58.28009 | 10567 ft | 336 kts | 155° |
| 2026-04-27 18:36 | 23.33512 | 58.29186 | 10800 ft | 353 kts | 155° |
| 2026-04-27 18:36 | 23.31296 | 58.30409 | 11429 ft | 358 kts | 155° |
| 2026-04-27 18:36 | 23.29056 | 58.31647 | 12031 ft | 364 kts | 155° |
| 2026-04-27 18:37 | 23.26772 | 58.32905 | 12596 ft | 370 kts | 155° |
| 2026-04-27 18:37 | 23.24458 | 58.34175 | 13199 ft | 374 kts | 155° |
| 2026-04-27 18:37 | 23.22117 | 58.35461 | 13764 ft | 379 kts | 155° |
| 2026-04-27 18:37 | 23.19755 | 58.36760 | 14296 ft | 383 kts | 155° |
| 2026-04-27 18:38 | 23.17370 | 58.38072 | 14881 ft | 384 kts | 155° |
| 2026-04-27 18:38 | 23.14973 | 58.39389 | 15434 ft | 387 kts | 155° |
| 2026-04-27 18:38 | 23.12558 | 58.40715 | 15973 ft | 390 kts | 155° |
| 2026-04-27 18:38 | 23.10127 | 58.42047 | 16527 ft | 392 kts | 155° |
| 2026-04-27 18:39 | 23.07715 | 58.43371 | 17015 ft | 395 kts | 155° |
| 2026-04-27 18:39 | 23.05264 | 58.44714 | 17604 ft | 395 kts | 155° |
| 2026-04-27 18:39 | 23.02790 | 58.46059 | 18082 ft | 398 kts | 155° |
| 2026-04-27 18:39 | 23.00310 | 58.47399 | 18523 ft | 400 kts | 155° |
| 2026-04-27 18:40 | 22.97817 | 58.48764 | 18978 ft | 402 kts | 155° |
| 2026-04-27 18:40 | 22.95315 | 58.50150 | 19403 ft | 405 kts | 155° |
| 2026-04-27 18:40 | 22.92795 | 58.51543 | 19848 ft | 408 kts | 155° |
| 2026-04-27 18:40 | 22.90253 | 58.52940 | 20292 ft | 411 kts | 155° |
| 2026-04-27 18:41 | 22.87698 | 58.54339 | 20732 ft | 413 kts | 155° |
| 2026-04-27 18:41 | 22.85152 | 58.55731 | 21147 ft | 416 kts | 155° |
| 2026-04-27 18:41 | 22.82521 | 58.57169 | 21572 ft | 419 kts | 155° |
| 2026-04-27 18:41 | 22.79952 | 58.58573 | 22081 ft | 420 kts | 155° |
| 2026-04-27 18:42 | 22.77298 | 58.60022 | 22509 ft | 423 kts | 155° |
| 2026-04-27 18:42 | 22.75553 | 58.60973 | 22787 ft | 425 kts | 155° |
| 2026-04-27 18:42 | 22.72044 | 58.62888 | 23356 ft | 428 kts | 155° |
| 2026-04-27 18:42 | 22.69374 | 58.64343 | 23716 ft | 431 kts | 155° |
| 2026-04-27 18:43 | 22.66679 | 58.65812 | 24039 ft | 434 kts | 155° |
| 2026-04-27 18:43 | 22.63967 | 58.67289 | 24370 ft | 437 kts | 155° |
| 2026-04-27 18:43 | 22.61240 | 58.68773 | 24693 ft | 440 kts | 155° |
| 2026-04-27 18:43 | 22.58493 | 58.70268 | 25021 ft | 443 kts | 155° |
| 2026-04-27 18:44 | 22.55726 | 58.71773 | 25335 ft | 446 kts | 155° |
| 2026-04-27 18:44 | 22.52943 | 58.73286 | 25635 ft | 449 kts | 155° |
| 2026-04-27 18:44 | 22.50139 | 58.74810 | 25937 ft | 452 kts | 155° |
| 2026-04-27 18:44 | 22.47320 | 58.76341 | 26230 ft | 455 kts | 155° |
| 2026-04-27 18:45 | 22.44486 | 58.77880 | 26528 ft | 457 kts | 156° |
| 2026-04-27 18:45 | 22.41636 | 58.79427 | 26803 ft | 460 kts | 156° |
| 2026-04-27 18:45 | 22.38761 | 58.80986 | 27108 ft | 462 kts | 156° |
| 2026-04-27 18:45 | 22.35873 | 58.82552 | 27384 ft | 465 kts | 156° |
| 2026-04-27 18:46 | 22.32968 | 58.84127 | 27643 ft | 468 kts | 156° |
| 2026-04-27 18:46 | 22.30088 | 58.85686 | 27931 ft | 470 kts | 156° |
| 2026-04-27 18:46 | 22.27160 | 58.87279 | 28189 ft | 473 kts | 154° |
| 2026-04-27 18:46 | 22.24353 | 58.89160 | 28437 ft | 478 kts | 146° |
| 2026-04-27 18:47 | 22.21787 | 58.91482 | 28679 ft | 483 kts | 137° |
| 2026-04-27 18:47 | 22.19528 | 58.94181 | 28903 ft | 486 kts | 130° |
| 2026-04-27 18:47 | 22.17369 | 58.97007 | 29136 ft | 489 kts | 131° |
| 2026-04-27 18:47 | 22.15191 | 58.99841 | 29372 ft | 491 kts | 131° |
| 2026-04-27 18:48 | 22.13004 | 59.02679 | 29609 ft | 493 kts | 131° |
| 2026-04-27 18:48 | 22.10804 | 59.05529 | 29913 ft | 494 kts | 131° |
| 2026-04-27 18:48 | 22.08602 | 59.08379 | 30129 ft | 496 kts | 131° |
| 2026-04-27 18:48 | 22.06392 | 59.11238 | 30338 ft | 497 kts | 131° |
| 2026-04-27 18:49 | 22.04170 | 59.14111 | 30557 ft | 499 kts | 131° |
| 2026-04-27 18:49 | 22.01970 | 59.16954 | 30780 ft | 500 kts | 131° |
| 2026-04-27 18:49 | 21.99733 | 59.19843 | 31043 ft | 500 kts | 131° |
| 2026-04-27 18:49 | 21.97508 | 59.22716 | 31340 ft | 500 kts | 131° |
| 2026-04-27 18:50 | 21.95282 | 59.25589 | 31634 ft | 499 kts | 131° |
| 2026-04-27 18:50 | 21.93056 | 59.28460 | 31929 ft | 498 kts | 131° |
| 2026-04-27 18:50 | 21.90833 | 59.31326 | 32212 ft | 498 kts | 131° |
| 2026-04-27 18:50 | 21.88612 | 59.34186 | 32544 ft | 496 kts | 131° |
| 2026-04-27 18:51 | 21.86403 | 59.37030 | 32840 ft | 494 kts | 131° |
| 2026-04-27 18:51 | 21.84199 | 59.39868 | 33105 ft | 493 kts | 131° |
| 2026-04-27 18:51 | 21.81998 | 59.42698 | 33341 ft | 493 kts | 131° |
| 2026-04-27 18:51 | 21.79830 | 59.45484 | 33594 ft | 492 kts | 131° |
| 2026-04-27 18:52 | 21.77630 | 59.48312 | 33820 ft | 492 kts | 131° |
| 2026-04-27 18:52 | 21.75429 | 59.51138 | 34002 ft | 491 kts | 131° |
| 2026-04-27 18:52 | 21.73233 | 59.53957 | 34181 ft | 491 kts | 131° |
| 2026-04-27 18:53 | 21.68839 | 59.59593 | 34508 ft | 491 kts | 131° |
| 2026-04-27 18:53 | 21.67387 | 59.61453 | 34625 ft | 491 kts | 131° |
| 2026-04-27 18:53 | 21.64477 | 59.65181 | 34824 ft | 490 kts | 131° |
| 2026-04-27 18:53 | 21.62290 | 59.67978 | 35033 ft | 489 kts | 131° |
| 2026-04-27 18:54 | 21.60099 | 59.70781 | 35188 ft | 489 kts | 131° |
| 2026-04-27 18:54 | 21.56459 | 59.75435 | 35429 ft | 489 kts | 131° |
| 2026-04-27 18:54 | 21.54267 | 59.78235 | 35579 ft | 488 kts | 131° |
| 2026-04-27 18:55 | 21.52065 | 59.81035 | 35736 ft | 488 kts | 131° |
| 2026-04-27 18:55 | 21.49872 | 59.83818 | 35869 ft | 488 kts | 131° |
| 2026-04-27 18:55 | 21.47678 | 59.86602 | 36011 ft | 488 kts | 131° |
| 2026-04-27 18:55 | 21.45484 | 59.89384 | 36149 ft | 488 kts | 131° |
| 2026-04-27 18:56 | 21.43292 | 59.92165 | 36263 ft | 488 kts | 131° |
| 2026-04-27 18:56 | 21.41092 | 59.94952 | 36405 ft | 487 kts | 130° |
| 2026-04-27 18:56 | 21.38934 | 59.97685 | 36585 ft | 486 kts | 130° |
| 2026-04-27 18:56 | 21.36744 | 60.00458 | 36707 ft | 486 kts | 130° |
| 2026-04-27 18:57 | 21.34559 | 60.03225 | 36783 ft | 486 kts | 130° |
| 2026-04-27 18:57 | 21.30183 | 60.08761 | 36787 ft | 485 kts | 130° |
| 2026-04-27 18:58 | 21.25813 | 60.14283 | 36785 ft | 485 kts | 130° |
| 2026-04-27 18:58 | 21.21447 | 60.19802 | 36787 ft | 486 kts | 130° |